createdAt,value
2022-08-14T00:02:27.854Z,3.80
2022-08-14T00:04:59.891Z,3.70
2022-08-14T00:07:28.969Z,4.00
2022-08-14T00:10:49.295Z,3.90
2022-08-14T00:12:56.345Z,3.90
2022-08-14T00:15:37.267Z,3.90
2022-08-14T00:18:30.865Z,3.70
2022-08-14T00:21:11.278Z,3.60
2022-08-14T00:23:41.147Z,3.80
2022-08-14T00:26:21.632Z,4.00
2022-08-14T00:28:54.013Z,3.90
2022-08-14T00:31:35.305Z,3.80
2022-08-14T00:34:37.727Z,3.80
2022-08-14T00:37:02.275Z,3.50
2022-08-14T00:39:30.910Z,3.80
2022-08-14T00:41:59.314Z,3.60
2022-08-14T00:44:32.863Z,3.50
2022-08-14T00:47:10.584Z,3.50
2022-08-14T00:49:43.501Z,3.80
2022-08-14T00:52:17.848Z,3.70
2022-08-14T00:54:58.167Z,3.70
2022-08-14T00:57:31.079Z,3.50
2022-08-14T01:00:00.796Z,3.70
2022-08-14T01:02:31.917Z,3.70
2022-08-14T01:05:07.800Z,3.40
2022-08-14T01:07:38.546Z,3.70
2022-08-14T01:10:16.877Z,3.30
2022-08-14T01:12:47.867Z,3.20
2022-08-14T01:15:21.521Z,3.50
2022-08-14T01:18:45.362Z,3.60
2022-08-14T01:21:32.336Z,3.80
2022-08-14T01:24:05.779Z,3.40
2022-08-14T01:29:16.241Z,3.20
2022-08-14T01:32:04.200Z,3.50
2022-08-14T01:35:18.906Z,3.40
2022-08-14T01:37:26.073Z,3.10
2022-08-14T01:39:54.886Z,3.10
2022-08-14T01:42:31.495Z,3.20
2022-08-14T01:45:12.682Z,3.10
2022-08-14T01:47:45.998Z,3.30
2022-08-14T01:50:18.427Z,3.10
2022-08-14T01:52:58.823Z,3.30
2022-08-14T01:55:32.815Z,3.20
2022-08-14T01:58:20.193Z,3.10
2022-08-14T02:00:55.573Z,3.30
2022-08-14T02:03:32.013Z,3.20
2022-08-14T02:06:03.620Z,3.20
2022-08-14T02:08:53.107Z,2.90
2022-08-14T02:11:26.058Z,2.90
2022-08-14T02:14:07.421Z,3.30
2022-08-14T02:16:48.203Z,3.20
2022-08-14T02:19:23.452Z,3.30
2022-08-14T02:21:56.719Z,3.40
2022-08-14T02:24:39.427Z,3.00
2022-08-14T02:28:25.152Z,3.00
2022-08-14T02:30:02.178Z,3.10
2022-08-14T02:32:37.362Z,2.90
2022-08-14T02:35:17.823Z,2.90
2022-08-14T02:37:49.881Z,3.30
2022-08-14T02:40:32.072Z,2.80
2022-08-14T02:43:03.671Z,2.90
2022-08-14T02:45:38.542Z,2.90
2022-08-14T02:49:01.152Z,2.70
2022-08-14T02:51:15.016Z,3.20
2022-08-14T02:53:46.653Z,3.20
2022-08-14T02:56:30.728Z,2.80
2022-08-14T02:59:10.872Z,3.00
2022-08-14T03:01:50.636Z,3.00
2022-08-14T03:04:25.226Z,3.00
2022-08-14T03:06:57.724Z,3.00
2022-08-14T03:09:41.824Z,2.70
2022-08-14T03:12:31.151Z,2.80
2022-08-14T03:15:14.280Z,3.10
2022-08-14T03:17:57.133Z,3.10
2022-08-14T03:20:30.457Z,2.80
2022-08-14T03:23:03.189Z,2.80
2022-08-14T03:25:37.847Z,3.00
2022-08-14T03:28:14.903Z,2.80
2022-08-14T03:30:59.718Z,2.90
2022-08-14T03:33:37.648Z,2.80
2022-08-14T03:37:38.907Z,3.00
2022-08-14T03:39:13.606Z,2.90
2022-08-14T03:42:00.014Z,2.80
2022-08-14T03:45:19.617Z,3.00
2022-08-14T03:47:18.619Z,2.60
2022-08-14T03:49:50.079Z,2.70
2022-08-14T03:52:38.828Z,2.90
2022-08-14T03:55:12.736Z,3.00
2022-08-14T04:00:43.028Z,3.00
2022-08-14T04:03:06.567Z,2.70
2022-08-14T04:05:43.523Z,2.90
2022-08-14T04:08:28.987Z,2.60
2022-08-14T04:11:02.947Z,2.70
2022-08-14T04:13:42.428Z,2.70
2022-08-14T04:16:15.847Z,2.70
2022-08-14T04:18:54.251Z,2.80
2022-08-14T04:21:28.377Z,2.80
2022-08-14T04:24:00.487Z,2.60
2022-08-14T04:26:42.187Z,2.90
2022-08-14T04:29:15.492Z,3.10
2022-08-14T04:32:58.392Z,3.10
2022-08-14T04:34:42.156Z,2.90
2022-08-14T04:37:29.589Z,2.40
2022-08-14T04:40:17.665Z,2.70
2022-08-14T04:43:04.281Z,2.80
2022-08-14T04:45:36.563Z,2.90
2022-08-14T04:48:40.058Z,2.80
2022-08-14T04:51:07.189Z,2.80
2022-08-14T04:53:41.077Z,2.50
2022-08-14T04:56:31.353Z,2.60
2022-08-14T04:59:09.926Z,2.30
2022-08-14T05:01:49.773Z,2.50
2022-08-14T05:04:22.972Z,2.80
2022-08-14T05:06:55.217Z,2.50
2022-08-14T05:09:29.286Z,2.80
2022-08-14T05:13:11.078Z,2.70
2022-08-14T05:14:55.086Z,2.60
2022-08-14T05:17:31.876Z,2.70
2022-08-14T05:21:04.834Z,2.60
2022-08-14T05:23:02.295Z,2.70
2022-08-14T05:25:34.295Z,2.50
2022-08-14T05:28:16.194Z,2.60
2022-08-14T05:30:51.188Z,2.70
2022-08-14T05:33:22.572Z,2.70
2022-08-14T05:35:53.384Z,2.70
2022-08-14T05:38:31.037Z,2.40
2022-08-14T05:41:06.569Z,2.50
2022-08-14T05:43:41.458Z,2.60
2022-08-14T05:46:15.867Z,2.40
2022-08-14T05:48:53.648Z,2.40
2022-08-14T05:51:24.745Z,2.90
2022-08-14T05:54:01.390Z,2.60
2022-08-14T05:56:41.054Z,2.80
2022-08-14T05:59:09.207Z,2.90
2022-08-14T06:01:39.482Z,2.50
2022-08-14T06:04:07.899Z,2.50
2022-08-14T06:06:38.529Z,2.50
2022-08-14T06:09:09.677Z,2.60
2022-08-14T06:11:38.591Z,2.60
2022-08-14T06:14:20.867Z,2.60
2022-08-14T06:16:49.804Z,2.50
2022-08-14T06:19:23.444Z,2.50
2022-08-14T06:21:58.310Z,2.70
2022-08-14T06:24:30.628Z,2.60
2022-08-14T06:27:05.883Z,2.90
2022-08-14T06:29:39.758Z,2.70
2022-08-14T06:32:46.994Z,2.70
2022-08-14T06:35:09.702Z,2.70
2022-08-14T06:37:54.755Z,2.80
2022-08-14T06:40:29.875Z,2.60
2022-08-14T06:43:07.598Z,2.60
2022-08-14T06:45:40.513Z,2.50
2022-08-14T06:50:48.259Z,2.70
2022-08-14T06:53:19.934Z,2.50
2022-08-14T06:55:58.424Z,2.70
2022-08-14T06:58:31.603Z,2.50
2022-08-14T07:01:27.096Z,2.70
2022-08-14T07:04:22.687Z,2.80
2022-08-14T07:06:59.528Z,2.60
2022-08-14T07:09:40.514Z,2.70
2022-08-14T07:12:55.083Z,2.70
2022-08-14T07:15:07.356Z,2.50
2022-08-14T07:17:46.253Z,2.50
2022-08-14T07:20:22.529Z,2.60
2022-08-14T07:23:09.297Z,2.60
2022-08-14T07:25:43.848Z,2.60
2022-08-14T07:28:23.912Z,2.70
2022-08-14T07:31:04.698Z,2.40
2022-08-14T07:33:50.765Z,2.60
2022-08-14T07:36:27.679Z,2.60
2022-08-14T07:39:00.770Z,2.50
2022-08-14T07:41:35.787Z,2.60
2022-08-14T07:44:29.758Z,2.80
2022-08-14T07:46:54.691Z,2.90
2022-08-14T07:49:24.495Z,2.70
2022-08-14T07:51:52.566Z,2.70
2022-08-14T07:54:23.553Z,2.70
2022-08-14T07:57:00.098Z,2.80
2022-08-14T07:59:42.388Z,2.90
2022-08-14T08:02:18.922Z,2.60
2022-08-14T08:04:55.368Z,3.00
2022-08-14T08:07:32.158Z,2.60
2022-08-14T08:11:01.458Z,2.70
2022-08-14T08:13:24.399Z,2.60
2022-08-14T08:15:58.217Z,2.80
2022-08-14T08:18:27.583Z,2.80
2022-08-14T08:20:59.753Z,2.60
2022-08-14T08:23:40.247Z,2.80
2022-08-14T08:26:11.730Z,2.70
2022-08-14T08:28:43.689Z,2.90
2022-08-14T08:31:12.975Z,2.70
2022-08-14T08:33:49.424Z,2.60
2022-08-14T08:36:19.074Z,2.90
2022-08-14T08:39:17.342Z,2.80
2022-08-14T08:41:50.774Z,2.80
2022-08-14T08:44:31.593Z,2.40
2022-08-14T08:47:06.671Z,2.70
2022-08-14T08:49:48.271Z,2.90
2022-08-14T08:52:25.566Z,2.90
2022-08-14T08:54:57.321Z,2.90
2022-08-14T08:57:26.931Z,3.00
2022-08-14T08:59:58.942Z,3.00
2022-08-14T09:02:27.983Z,2.70
2022-08-14T09:05:04.005Z,2.90
2022-08-14T09:07:33.038Z,2.80
2022-08-14T09:10:02.139Z,2.80
2022-08-14T09:12:34.345Z,3.00
2022-08-14T09:15:12.630Z,2.70
2022-08-14T09:17:43.637Z,2.70
2022-08-14T09:20:14.160Z,2.90
2022-08-14T09:22:56.101Z,3.00
2022-08-14T09:26:01.196Z,3.30
2022-08-14T09:28:16.316Z,3.10
2022-08-14T09:30:55.939Z,2.70
2022-08-14T09:33:56.422Z,3.20
2022-08-14T09:36:49.935Z,3.00
2022-08-14T09:40:20.721Z,3.30
2022-08-14T09:43:33.467Z,3.10
2022-08-14T09:46:08.021Z,3.00
2022-08-14T09:48:37.993Z,3.30
2022-08-14T09:51:19.219Z,3.10
2022-08-14T09:54:18.181Z,2.90
2022-08-14T09:56:56.957Z,3.00
2022-08-14T09:59:32.142Z,3.30
2022-08-14T10:02:02.094Z,3.20
2022-08-14T10:04:33.484Z,3.00
2022-08-14T10:07:08.094Z,3.20
2022-08-14T10:10:00.133Z,3.00
2022-08-14T10:12:50.209Z,3.10
2022-08-14T10:15:26.018Z,2.90
2022-08-14T10:18:18.267Z,3.20
2022-08-14T10:21:04.528Z,3.30
2022-08-14T10:23:49.953Z,3.30
2022-08-14T10:26:23.040Z,3.10
2022-08-14T10:29:19.605Z,3.30
2022-08-14T10:31:59.595Z,3.50
2022-08-14T10:34:38.739Z,3.20
2022-08-14T10:37:14.799Z,2.90
2022-08-14T10:40:01.599Z,3.40
2022-08-14T10:42:43.802Z,5.20
2022-08-14T10:45:34.023Z,5.60
2022-08-14T10:48:24.351Z,6.50
2022-08-14T10:51:08.806Z,6.30
2022-08-14T10:53:39.791Z,6.70
2022-08-14T10:56:21.378Z,7.20
2022-08-14T10:59:05.197Z,7.00
2022-08-14T11:01:41.051Z,7.60
2022-08-14T11:04:30.374Z,7.90
2022-08-14T11:06:59.593Z,7.50
2022-08-14T11:09:31.767Z,7.70
2022-08-14T11:12:40.316Z,7.00
2022-08-14T11:15:02.091Z,6.90
2022-08-14T11:17:33.091Z,7.00
2022-08-14T11:20:04.551Z,7.50
2022-08-14T11:22:55.673Z,7.70
2022-08-14T11:25:25.167Z,7.40
2022-08-14T11:28:14.654Z,8.20
2022-08-14T11:30:54.092Z,7.90
2022-08-14T11:33:31.237Z,7.40
2022-08-14T11:36:17.292Z,8.10
2022-08-14T11:38:47.403Z,8.30
2022-08-14T11:41:16.941Z,8.10
2022-08-14T11:43:58.473Z,8.20
2022-08-14T11:46:30.857Z,8.10
2022-08-14T11:49:07.238Z,7.70
2022-08-14T11:51:52.990Z,8.00
2022-08-14T11:54:34.561Z,8.10
2022-08-14T11:57:05.312Z,8.40
2022-08-14T11:59:34.071Z,8.30
2022-08-14T12:03:00.441Z,8.20
2022-08-14T12:05:09.223Z,8.60
2022-08-14T12:07:49.788Z,7.80
2022-08-14T12:10:26.115Z,8.50
2022-08-14T12:12:57.266Z,8.30
2022-08-14T12:15:36.282Z,8.40
2022-08-14T12:18:06.152Z,8.60
2022-08-14T12:20:45.568Z,8.30
2022-08-14T12:26:39.727Z,8.10
2022-08-14T12:29:12.993Z,7.90
2022-08-14T12:31:44.539Z,8.10
2022-08-14T12:34:20.330Z,9.00
2022-08-14T12:37:04.294Z,8.70
2022-08-14T12:39:39.673Z,8.30
2022-08-14T12:42:11.867Z,8.70
2022-08-14T12:45:00.050Z,8.70
2022-08-14T12:47:32.947Z,8.80
2022-08-14T12:50:01.506Z,8.60
2022-08-14T12:52:45.401Z,8.60
2022-08-14T12:55:32.487Z,8.20
2022-08-14T12:58:28.645Z,8.40
2022-08-14T13:01:16.718Z,8.50
2022-08-14T13:03:51.778Z,8.20
2022-08-14T13:06:23.308Z,9.00
2022-08-14T13:09:00.213Z,8.50
2022-08-14T13:11:58.833Z,8.60
2022-08-14T13:14:40.774Z,8.40
2022-08-14T13:17:11.705Z,8.90
2022-08-14T13:19:41.040Z,9.20
2022-08-14T13:22:19.447Z,8.50
2022-08-14T13:24:58.927Z,9.20
2022-08-14T13:27:27.713Z,8.70
2022-08-14T13:30:00.623Z,9.00
2022-08-14T13:32:34.156Z,9.10
2022-08-14T13:35:02.456Z,9.20
2022-08-14T13:37:32.942Z,8.90
2022-08-14T13:40:02.947Z,8.90
2022-08-14T13:42:32.958Z,8.70
2022-08-14T13:45:06.621Z,8.70
2022-08-14T13:47:35.491Z,9.10
2022-08-14T13:50:10.696Z,9.00
2022-08-14T13:52:54.881Z,8.80
2022-08-14T13:55:28.657Z,8.70
2022-08-14T13:58:05.035Z,8.90
2022-08-14T14:00:53.160Z,8.20
2022-08-14T14:03:30.467Z,8.90
2022-08-14T14:06:03.105Z,8.50
2022-08-14T14:08:46.284Z,8.00
2022-08-14T14:11:24.244Z,8.20
2022-08-14T14:13:56.573Z,7.90
2022-08-14T14:16:30.784Z,7.60
2022-08-14T14:21:40.477Z,7.40
2022-08-14T14:24:14.848Z,7.80
2022-08-14T14:26:50.244Z,7.10
2022-08-14T14:29:25.988Z,7.50
2022-08-14T14:31:55.885Z,7.20
2022-08-14T14:34:33.446Z,7.50
2022-08-14T14:37:04.837Z,7.50
2022-08-14T14:39:37.584Z,7.00
2022-08-14T14:42:09.422Z,6.40
2022-08-14T14:44:46.067Z,6.60
2022-08-14T14:47:22.657Z,7.10
2022-08-14T14:49:55.251Z,6.70
2022-08-14T14:52:26.947Z,6.50
2022-08-14T14:54:58.899Z,6.40
2022-08-14T14:57:34.780Z,6.70
2022-08-14T15:00:19.490Z,6.60
2022-08-14T15:02:52.413Z,6.70
2022-08-14T15:05:23.292Z,6.10
2022-08-14T15:07:56.540Z,6.00
2022-08-14T15:10:30.488Z,6.50
2022-08-14T15:13:04.136Z,6.40
2022-08-14T15:15:37.237Z,6.60
2022-08-14T15:18:14.856Z,6.00
2022-08-14T15:20:58.264Z,5.90
2022-08-14T15:23:32.180Z,6.30
2022-08-14T15:26:00.973Z,5.70
2022-08-14T15:28:38.761Z,5.60
2022-08-14T15:31:08.166Z,5.80
2022-08-14T15:34:33.427Z,5.60
2022-08-14T15:36:45.729Z,5.90
2022-08-14T15:39:14.348Z,5.60
2022-08-14T15:41:45.356Z,5.70
2022-08-14T15:44:25.486Z,5.50
2022-08-14T15:46:58.301Z,5.70
2022-08-14T15:49:34.827Z,5.30
2022-08-14T15:52:05.262Z,5.60
2022-08-14T15:54:34.400Z,5.60
2022-08-14T15:57:08.676Z,6.70
2022-08-14T15:59:59.933Z,6.90
2022-08-14T16:02:28.686Z,6.40
2022-08-14T16:04:58.021Z,6.70
2022-08-14T16:07:27.160Z,6.70
2022-08-14T16:10:25.703Z,6.30
2022-08-14T16:12:47.518Z,6.20
2022-08-14T16:15:16.745Z,6.30
2022-08-14T16:17:46.516Z,6.10
2022-08-14T16:20:41.688Z,6.10
2022-08-14T16:23:10.409Z,6.00
2022-08-14T16:25:44.446Z,5.80
2022-08-14T16:28:27.142Z,5.40
2022-08-14T16:30:56.285Z,5.80
2022-08-14T16:33:56.341Z,5.80
2022-08-14T16:36:30.425Z,5.60
2022-08-14T16:39:03.895Z,5.60
2022-08-14T16:41:32.643Z,5.30
2022-08-14T16:44:21.989Z,5.20
2022-08-14T16:47:05.471Z,4.90
2022-08-14T16:50:04.582Z,5.10
2022-08-14T16:52:26.401Z,5.40
2022-08-14T16:55:14.330Z,5.20
2022-08-14T16:57:58.498Z,5.10
2022-08-14T17:00:32.845Z,4.50
2022-08-14T17:03:11.782Z,4.80
2022-08-14T17:05:47.062Z,4.60
2022-08-14T17:08:32.937Z,4.60
2022-08-14T17:11:12.583Z,4.30
2022-08-14T17:13:57.785Z,4.30
2022-08-14T17:16:38.795Z,4.60
2022-08-14T17:19:09.713Z,4.10
2022-08-14T17:21:46.837Z,4.40
2022-08-14T17:24:55.882Z,4.60
2022-08-14T17:27:11.412Z,4.10
2022-08-14T17:29:56.137Z,4.10
2022-08-14T17:32:44.289Z,3.90
2022-08-14T17:35:57.465Z,4.30
2022-08-14T17:41:23.499Z,4.00
2022-08-14T17:43:54.905Z,4.10
2022-08-14T17:46:43.573Z,3.90
2022-08-14T17:49:18.269Z,3.60
2022-08-14T17:52:07.665Z,3.60
2022-08-14T17:54:52.712Z,4.00
2022-08-14T17:57:35.270Z,3.90
2022-08-14T18:00:16.799Z,3.90
2022-08-14T18:02:51.358Z,3.40
2022-08-14T18:05:23.235Z,3.70
2022-08-14T18:08:32.483Z,3.60
2022-08-14T18:11:00.775Z,3.40
2022-08-14T18:13:51.622Z,3.50
2022-08-14T18:16:22.649Z,3.80
2022-08-14T18:18:51.827Z,3.70
2022-08-14T18:21:39.650Z,3.60
2022-08-14T18:24:29.159Z,3.30
2022-08-14T18:27:08.941Z,3.30
2022-08-14T18:29:55.214Z,3.10
2022-08-14T18:32:47.654Z,3.10
2022-08-14T18:35:45.701Z,3.20
2022-08-14T18:38:46.107Z,3.10
2022-08-14T18:41:36.257Z,3.20
2022-08-14T18:44:10.243Z,3.30
2022-08-14T18:47:14.917Z,3.40
2022-08-14T18:49:57.835Z,2.90
2022-08-14T18:52:37.634Z,2.80
2022-08-14T18:55:16.972Z,3.10
2022-08-14T18:57:58.003Z,3.20
2022-08-14T19:00:32.392Z,2.90
2022-08-14T19:03:04.318Z,3.20
2022-08-14T19:06:00.879Z,3.20
2022-08-14T19:08:39.218Z,3.00
2022-08-14T19:11:34.849Z,3.00
2022-08-14T19:14:06.453Z,3.10
2022-08-14T19:16:42.997Z,2.90
2022-08-14T19:19:17.120Z,3.20
2022-08-14T19:21:57.143Z,3.60
2022-08-14T19:24:34.264Z,4.50
2022-08-14T19:27:23.842Z,4.90
2022-08-14T19:30:23.457Z,4.70
2022-08-14T19:32:57.012Z,5.30
2022-08-14T19:35:48.718Z,5.60
2022-08-14T19:39:02.225Z,6.20
2022-08-14T19:41:36.921Z,6.30
2022-08-14T19:44:19.379Z,6.00
2022-08-14T19:47:01.445Z,6.50
2022-08-14T19:50:24.938Z,6.50
2022-08-14T19:52:37.392Z,5.90
2022-08-14T19:55:20.199Z,6.10
2022-08-14T19:57:58.329Z,6.40
2022-08-14T20:00:30.252Z,6.50
2022-08-14T20:03:10.162Z,6.30
2022-08-14T20:05:45.331Z,6.60
2022-08-14T20:11:42.968Z,7.20
2022-08-14T20:14:27.878Z,6.80
2022-08-14T20:17:05.645Z,7.10
2022-08-14T20:19:38.119Z,6.60
2022-08-14T20:22:35.337Z,6.90
2022-08-14T20:25:38.038Z,6.60
2022-08-14T20:28:35.663Z,6.80
2022-08-14T20:31:19.472Z,7.00
2022-08-14T20:34:19.080Z,6.40
2022-08-14T20:37:22.083Z,7.30
2022-08-14T20:39:54.863Z,7.40
2022-08-14T20:42:43.857Z,7.40
2022-08-14T20:45:23.717Z,7.50
2022-08-14T20:48:07.276Z,7.20
2022-08-14T20:50:45.070Z,6.50
2022-08-14T20:53:34.507Z,6.50
2022-08-14T20:56:29.066Z,7.10
2022-08-14T20:58:59.293Z,6.80
2022-08-14T21:01:32.585Z,6.50
2022-08-14T21:04:05.075Z,6.60
2022-08-14T21:07:22.663Z,6.50
2022-08-14T21:10:04.614Z,5.80
2022-08-14T21:12:33.437Z,5.80
2022-08-14T21:15:10.277Z,6.00
2022-08-14T21:17:41.565Z,6.50
2022-08-14T21:20:25.362Z,6.20
2022-08-14T21:23:00.416Z,6.00
2022-08-14T21:25:31.795Z,6.20
2022-08-14T21:28:06.250Z,5.90
2022-08-14T21:30:51.084Z,5.80
2022-08-14T21:33:22.760Z,5.80
2022-08-14T21:35:54.858Z,5.70
2022-08-14T21:38:33.948Z,5.20
2022-08-14T21:41:42.175Z,4.90
2022-08-14T21:44:18.108Z,5.00
2022-08-14T21:46:56.740Z,5.70
2022-08-14T21:49:37.538Z,5.40
2022-08-14T21:52:52.257Z,5.10
2022-08-14T21:55:12.101Z,5.20
2022-08-14T21:57:55.905Z,4.90
2022-08-14T22:00:42.428Z,4.90
2022-08-14T22:03:24.338Z,4.60
2022-08-14T22:05:56.202Z,4.80
2022-08-14T22:08:27.236Z,4.40
2022-08-14T22:10:56.724Z,4.40
2022-08-14T22:13:32.353Z,5.00
2022-08-14T22:16:02.466Z,4.50
2022-08-14T22:18:31.380Z,4.90
2022-08-14T22:21:05.727Z,4.10
2022-08-14T22:23:35.818Z,4.30
2022-08-14T22:26:06.411Z,3.90
2022-08-14T22:28:35.293Z,4.50
2022-08-14T22:31:10.905Z,4.60
2022-08-14T22:33:40.654Z,4.00
2022-08-14T22:36:33.690Z,4.20
2022-08-14T22:39:04.138Z,3.90
2022-08-14T22:41:42.457Z,4.30
2022-08-14T22:44:17.841Z,4.10
2022-08-14T22:46:47.739Z,3.60
2022-08-14T22:50:31.832Z,4.20
2022-08-14T22:52:31.584Z,3.80
2022-08-14T22:54:59.722Z,3.60
2022-08-14T22:57:37.104Z,3.40
2022-08-14T23:00:25.183Z,3.60
2022-08-14T23:02:58.338Z,3.50
2022-08-14T23:05:39.075Z,3.30
2022-08-14T23:08:56.479Z,3.70
2022-08-14T23:11:03.019Z,3.50
2022-08-14T23:13:33.231Z,3.70
2022-08-14T23:16:01.268Z,3.40
2022-08-14T23:18:30.466Z,3.60
2022-08-14T23:20:58.754Z,3.20
2022-08-14T23:23:27.527Z,3.10
2022-08-14T23:25:59.695Z,3.00
2022-08-14T23:28:33.718Z,2.90
2022-08-14T23:31:33.498Z,3.20
2022-08-14T23:34:11.364Z,3.00
2022-08-14T23:36:54.481Z,3.30
2022-08-14T23:39:34.605Z,2.70
2022-08-14T23:42:09.111Z,2.80
2022-08-14T23:44:38.982Z,3.20
2022-08-14T23:47:12.149Z,2.80
2022-08-14T23:50:00.914Z,2.30
2022-08-14T23:52:51.605Z,2.80
2022-08-14T23:55:32.764Z,2.80
2022-08-14T23:58:01.355Z,2.80
